createdAt,value
2018-10-05T00:00:29.192Z,1.20
2018-10-05T00:03:01.531Z,1.40
2018-10-05T00:05:33.670Z,1.50
2018-10-05T00:08:05.665Z,1.00
2018-10-05T00:10:38.162Z,1.00
2018-10-05T00:13:10.269Z,1.90
2018-10-05T00:15:42.600Z,2.20
2018-10-05T00:18:15.016Z,1.50
2018-10-05T00:20:47.360Z,1.20
2018-10-05T00:23:19.706Z,2.80
2018-10-05T00:25:52.201Z,2.90
2018-10-05T00:28:24.406Z,2.40
2018-10-05T00:30:56.753Z,2.70
2018-10-05T00:33:29.149Z,2.20
2018-10-05T00:36:01.463Z,3.70
2018-10-05T00:38:33.892Z,3.30
2018-10-05T00:41:06.080Z,3.50
2018-10-05T00:43:38.236Z,4.10
2018-10-05T00:46:10.995Z,4.60
2018-10-05T00:48:43.175Z,4.20
2018-10-05T00:51:15.742Z,4.90
2018-10-05T00:53:47.858Z,5.30
2018-10-05T00:56:20.505Z,6.60
2018-10-05T00:58:53.052Z,6.10
2018-10-05T01:01:25.314Z,6.20
2018-10-05T01:03:57.188Z,6.50
2018-10-05T01:06:29.008Z,6.80
2018-10-05T01:09:01.064Z,6.90
2018-10-05T01:11:33.357Z,8.00
2018-10-05T01:14:05.873Z,7.70
2018-10-05T01:16:38.588Z,8.70
2018-10-05T01:19:10.883Z,8.30
2018-10-05T01:21:43.036Z,9.10
2018-10-05T01:24:15.519Z,9.60
2018-10-05T01:26:47.925Z,9.90
2018-10-05T01:29:20.269Z,9.90
2018-10-05T01:31:52.580Z,10.20
2018-10-05T01:34:24.740Z,10.70
2018-10-05T01:36:57.132Z,10.70
2018-10-05T01:39:29.591Z,11.00
2018-10-05T01:42:02.003Z,11.30
2018-10-05T01:44:34.399Z,11.50
2018-10-05T01:47:06.617Z,12.00
2018-10-05T01:49:39.199Z,12.20
2018-10-05T01:52:11.306Z,12.40
2018-10-05T01:54:43.307Z,13.10
2018-10-05T01:57:15.840Z,12.90
2018-10-05T01:59:49.677Z,13.00
2018-10-05T02:02:22.247Z,13.50
2018-10-05T02:04:54.463Z,13.70
2018-10-05T02:07:27.020Z,14.40
2018-10-05T02:09:59.332Z,14.60
2018-10-05T02:12:31.504Z,15.30
2018-10-05T02:15:03.473Z,16.10
2018-10-05T02:17:36.017Z,16.30
2018-10-05T02:20:08.044Z,16.90
2018-10-05T02:22:40.372Z,17.30
2018-10-05T02:25:13.078Z,17.80
2018-10-05T02:27:45.533Z,18.40
2018-10-05T02:30:17.528Z,18.50
2018-10-05T02:32:49.823Z,18.50
2018-10-05T02:35:22.025Z,19.10
2018-10-05T02:37:54.384Z,19.60
2018-10-05T02:40:26.396Z,20.50
2018-10-05T02:42:58.448Z,20.80
2018-10-05T02:45:30.845Z,21.30
2018-10-05T02:48:03.210Z,22.20
2018-10-05T02:50:35.437Z,22.20
2018-10-05T02:53:07.406Z,22.30
2018-10-05T02:55:39.795Z,22.20
2018-10-05T02:58:12.000Z,22.30
2018-10-05T03:00:52.971Z,22.70
2018-10-05T03:03:25.502Z,23.30
2018-10-05T03:05:57.356Z,23.40
2018-10-05T03:08:29.333Z,23.70
2018-10-05T03:11:01.896Z,24.00
2018-10-05T03:13:34.087Z,23.80
2018-10-05T03:16:06.475Z,24.30
2018-10-05T03:18:38.333Z,24.60
2018-10-05T03:21:10.138Z,24.80
2018-10-05T03:23:42.424Z,24.90
2018-10-05T03:26:14.628Z,25.30
2018-10-05T03:28:46.822Z,25.40
2018-10-05T03:31:19.155Z,25.60
2018-10-05T03:33:51.561Z,26.50
2018-10-05T03:36:23.901Z,25.40
2018-10-05T03:38:56.223Z,25.20
2018-10-05T03:41:27.971Z,25.10
2018-10-05T03:43:59.637Z,25.70
2018-10-05T03:46:34.122Z,25.50
2018-10-05T03:49:06.629Z,25.20
2018-10-05T03:51:39.139Z,24.80
2018-10-05T03:54:11.548Z,24.80
2018-10-05T03:56:43.892Z,25.40
2018-10-05T03:59:16.655Z,25.60
2018-10-05T04:01:49.071Z,25.30
2018-10-05T04:04:20.881Z,25.50
2018-10-05T04:06:52.734Z,25.60
2018-10-05T04:09:25.394Z,25.40
2018-10-05T04:11:57.897Z,25.60
2018-10-05T04:14:30.222Z,25.90
2018-10-05T04:17:02.246Z,26.00
2018-10-05T04:19:34.807Z,26.70
2018-10-05T04:22:06.977Z,26.80
2018-10-05T04:24:39.541Z,27.60
2018-10-05T04:27:11.968Z,27.90
2018-10-05T04:29:44.031Z,27.20
2018-10-05T04:32:16.689Z,27.60
2018-10-05T04:34:48.951Z,28.10
2018-10-05T04:37:21.381Z,28.60
2018-10-05T04:39:53.591Z,28.70
2018-10-05T04:42:25.782Z,28.70
2018-10-05T04:44:58.192Z,28.90
2018-10-05T04:47:30.244Z,29.70
2018-10-05T04:50:02.250Z,29.40
2018-10-05T04:52:34.063Z,29.60
2018-10-05T04:55:05.761Z,29.80
2018-10-05T04:57:37.910Z,30.00
2018-10-05T05:00:10.225Z,30.70
2018-10-05T05:02:42.469Z,30.60
2018-10-05T05:05:14.785Z,30.80
2018-10-05T05:07:46.892Z,31.00
2018-10-05T05:10:18.851Z,30.80
2018-10-05T05:12:50.556Z,31.10
2018-10-05T05:15:22.288Z,31.60
2018-10-05T05:17:54.948Z,31.90
2018-10-05T05:20:27.119Z,32.40
2018-10-05T05:22:59.185Z,32.60
2018-10-05T05:25:31.990Z,34.20
2018-10-05T05:28:04.385Z,34.70
2018-10-05T05:30:36.860Z,34.90
2018-10-05T05:33:09.300Z,35.50
2018-10-05T05:35:42.008Z,35.80
2018-10-05T05:38:14.219Z,36.30
2018-10-05T05:40:46.319Z,36.60
2018-10-05T05:43:18.753Z,37.50
2018-10-05T05:45:50.921Z,38.10
2018-10-05T05:48:23.080Z,38.30
2018-10-05T05:50:55.008Z,38.80
2018-10-05T05:53:27.204Z,38.90
2018-10-05T05:55:59.470Z,39.40
2018-10-05T05:58:31.853Z,39.80
2018-10-05T06:01:07.688Z,40.20
2018-10-05T06:03:40.318Z,40.70
2018-10-05T06:06:12.579Z,41.20
2018-10-05T06:08:44.727Z,41.30
2018-10-05T06:11:17.255Z,41.80
2018-10-05T06:13:49.882Z,42.60
2018-10-05T06:16:22.411Z,42.50
2018-10-05T06:18:54.792Z,43.20
2018-10-05T06:21:27.045Z,43.50
2018-10-05T06:23:59.219Z,43.90
2018-10-05T06:26:31.475Z,43.70
2018-10-05T06:29:03.872Z,44.80
2018-10-05T06:31:36.363Z,44.80
2018-10-05T06:34:08.614Z,45.70
2018-10-05T06:36:40.965Z,45.60
2018-10-05T06:39:13.285Z,47.30
2018-10-05T06:41:45.323Z,46.40
2018-10-05T06:44:17.514Z,46.90
2018-10-05T06:46:49.850Z,47.00
2018-10-05T06:49:22.440Z,47.30
2018-10-05T06:51:54.842Z,48.00
2018-10-05T06:54:27.225Z,48.30
2018-10-05T06:56:59.769Z,49.50
2018-10-05T06:59:31.979Z,49.40
2018-10-05T07:02:04.308Z,49.50
2018-10-05T07:04:36.484Z,50.40
2018-10-05T07:07:08.788Z,50.60
2018-10-05T07:09:41.033Z,50.30
2018-10-05T07:12:13.166Z,51.00
2018-10-05T07:14:45.147Z,51.50
2018-10-05T07:17:17.665Z,51.60
2018-10-05T07:19:49.889Z,52.10
2018-10-05T07:22:22.300Z,52.20
2018-10-05T07:24:54.873Z,52.40
2018-10-05T07:27:27.583Z,52.60
2018-10-05T07:30:00.101Z,53.10
2018-10-05T07:32:32.325Z,53.10
2018-10-05T07:35:04.659Z,53.10
2018-10-05T07:37:36.972Z,53.80
2018-10-05T07:40:10.169Z,54.00
2018-10-05T07:42:42.329Z,53.90
2018-10-05T07:45:14.533Z,54.20
2018-10-05T07:47:46.691Z,54.40
2018-10-05T07:50:19.106Z,54.30
2018-10-05T07:52:51.730Z,54.30
2018-10-05T07:55:24.010Z,54.50
2018-10-05T07:57:56.123Z,54.60
2018-10-05T08:00:28.751Z,54.90
2018-10-05T08:03:01.921Z,55.30
2018-10-05T08:05:33.955Z,55.70
2018-10-05T08:08:06.041Z,55.90
2018-10-05T08:10:38.539Z,55.20
2018-10-05T08:13:10.914Z,54.70
2018-10-05T08:15:43.172Z,54.20
2018-10-05T08:18:15.415Z,55.20
2018-10-05T08:20:47.616Z,54.60
2018-10-05T08:23:19.756Z,55.20
2018-10-05T08:25:51.755Z,55.50
2018-10-05T08:28:24.304Z,55.60
2018-10-05T08:30:57.079Z,55.70
2018-10-05T08:33:29.251Z,55.60
2018-10-05T08:36:01.466Z,55.70
2018-10-05T08:38:33.990Z,56.50
2018-10-05T08:41:06.201Z,57.20
2018-10-05T08:43:38.297Z,56.10
2018-10-05T08:46:10.558Z,56.60
2018-10-05T08:48:43.024Z,57.10
2018-10-05T08:51:15.438Z,57.10
2018-10-05T08:53:47.392Z,56.90
2018-10-05T08:56:19.569Z,56.80
2018-10-05T08:58:51.567Z,56.50
2018-10-05T09:01:24.155Z,56.10
2018-10-05T09:03:56.481Z,56.50
2018-10-05T09:06:28.693Z,56.50
2018-10-05T09:09:01.198Z,56.80
2018-10-05T09:11:33.424Z,57.00
2018-10-05T09:14:06.019Z,57.50
2018-10-05T09:16:38.189Z,57.00
2018-10-05T09:19:10.479Z,57.40
2018-10-05T09:21:42.653Z,57.50
2018-10-05T09:24:14.664Z,57.80
2018-10-05T09:26:46.801Z,57.80
2018-10-05T09:29:19.050Z,57.60
2018-10-05T09:31:51.528Z,58.00
2018-10-05T09:34:23.568Z,58.70
2018-10-05T09:36:56.004Z,59.40
2018-10-05T09:39:28.060Z,59.60
2018-10-05T09:42:00.060Z,59.80
2018-10-05T09:44:32.795Z,60.20
2018-10-05T09:47:05.267Z,60.40
2018-10-05T09:49:37.581Z,60.40
2018-10-05T09:52:10.156Z,60.70
2018-10-05T09:54:42.306Z,60.70
2018-10-05T09:57:14.558Z,60.90
2018-10-05T09:59:47.135Z,60.80
2018-10-05T10:02:24.187Z,60.90
2018-10-05T10:04:56.332Z,61.00
2018-10-05T10:07:28.603Z,60.60
2018-10-05T10:10:00.940Z,60.60
2018-10-05T10:12:33.095Z,60.70
2018-10-05T10:15:05.274Z,60.80
2018-10-05T10:17:37.854Z,61.10
2018-10-05T10:20:10.272Z,60.80
2018-10-05T10:22:42.350Z,60.80
2018-10-05T10:25:14.686Z,61.00
2018-10-05T10:27:47.211Z,60.90
2018-10-05T10:30:19.866Z,60.80
2018-10-05T10:32:52.190Z,60.90
2018-10-05T10:35:24.710Z,61.10
2018-10-05T10:37:56.899Z,61.10
2018-10-05T10:40:29.098Z,61.20
2018-10-05T10:43:01.315Z,60.90
2018-10-05T10:45:33.499Z,61.10
2018-10-05T10:48:05.745Z,61.40
2018-10-05T10:50:38.309Z,61.40
2018-10-05T10:53:10.687Z,61.80
2018-10-05T10:55:43.400Z,62.00
2018-10-05T10:58:15.559Z,61.80
2018-10-05T11:00:48.198Z,61.80
2018-10-05T11:03:20.343Z,61.70
2018-10-05T11:05:52.883Z,61.70
2018-10-05T11:08:25.211Z,61.50
2018-10-05T11:10:57.756Z,61.50
2018-10-05T11:13:29.907Z,61.00
2018-10-05T11:16:02.309Z,60.60
2018-10-05T11:18:34.740Z,60.50
2018-10-05T11:21:06.872Z,59.80
2018-10-05T11:23:38.850Z,59.50
2018-10-05T11:26:10.810Z,59.40
2018-10-05T11:28:43.171Z,59.10
2018-10-05T11:31:15.149Z,59.30
2018-10-05T11:33:47.341Z,59.40
2018-10-05T11:36:19.669Z,59.30
2018-10-05T11:38:51.884Z,59.50
2018-10-05T11:41:24.514Z,59.40
2018-10-05T11:43:56.818Z,59.80
2018-10-05T11:46:29.266Z,59.10
2018-10-05T11:49:01.325Z,59.00
2018-10-05T11:51:33.298Z,59.30
2018-10-05T11:54:05.771Z,59.00
2018-10-05T11:56:38.184Z,58.80
2018-10-05T11:59:10.385Z,59.10
2018-10-05T12:01:42.593Z,59.40
2018-10-05T12:04:15.260Z,58.90
2018-10-05T12:06:47.340Z,59.20
2018-10-05T12:09:19.920Z,59.50
2018-10-05T12:11:51.852Z,59.90
2018-10-05T12:14:24.015Z,59.70
2018-10-05T12:16:56.405Z,59.80
2018-10-05T12:19:28.799Z,60.00
2018-10-05T12:22:01.126Z,60.20
2018-10-05T12:24:33.311Z,60.10
2018-10-05T12:27:05.460Z,60.70
2018-10-05T12:29:37.628Z,60.30
2018-10-05T12:32:09.806Z,60.10
2018-10-05T12:34:41.960Z,59.70
2018-10-05T12:37:14.149Z,59.00
2018-10-05T12:39:46.309Z,59.00
2018-10-05T12:42:22.683Z,58.70
2018-10-05T12:44:54.708Z,58.70
2018-10-05T12:47:27.480Z,58.60
2018-10-05T12:49:59.669Z,58.20
2018-10-05T12:52:31.636Z,58.40
2018-10-05T12:55:04.015Z,58.50
2018-10-05T12:57:36.180Z,59.40
2018-10-05T13:00:08.501Z,59.50
2018-10-05T13:02:40.746Z,59.20
2018-10-05T13:05:13.314Z,59.00
2018-10-05T13:07:45.336Z,59.30
2018-10-05T13:10:17.745Z,59.80
2018-10-05T13:12:50.148Z,59.80
2018-10-05T13:15:22.545Z,59.60
2018-10-05T13:17:54.567Z,60.00
2018-10-05T13:20:26.954Z,59.20
2018-10-05T13:22:59.318Z,59.00
2018-10-05T13:25:31.865Z,59.50
2018-10-05T13:28:04.193Z,59.30
2018-10-05T13:30:36.418Z,59.40
2018-10-05T13:33:08.801Z,59.50
2018-10-05T13:35:41.791Z,59.40
2018-10-05T13:38:14.303Z,59.40
2018-10-05T13:40:46.764Z,59.30
2018-10-05T13:43:18.765Z,58.80
2018-10-05T13:45:50.949Z,58.40
2018-10-05T13:48:23.443Z,58.40
2018-10-05T13:50:55.669Z,58.10
2018-10-05T13:53:28.076Z,57.50
2018-10-05T13:56:00.312Z,58.20
2018-10-05T13:58:32.511Z,58.40
2018-10-05T14:01:04.946Z,58.30
2018-10-05T14:03:37.220Z,57.00
2018-10-05T14:06:09.584Z,56.60
2018-10-05T14:08:41.544Z,56.60
2018-10-05T14:11:14.274Z,55.90
2018-10-05T14:13:46.489Z,56.80
2018-10-05T14:16:18.930Z,56.70
2018-10-05T14:18:51.262Z,56.70
2018-10-05T14:21:23.604Z,57.30
2018-10-05T14:23:55.653Z,57.70
2018-10-05T14:26:28.068Z,58.10
2018-10-05T14:29:00.438Z,57.40
2018-10-05T14:31:32.711Z,57.80
2018-10-05T14:34:05.099Z,57.20
2018-10-05T14:36:37.663Z,56.00
2018-10-05T14:39:11.157Z,55.60
2018-10-05T14:41:43.482Z,56.30
2018-10-05T14:44:15.960Z,56.90
2018-10-05T14:46:47.924Z,56.20
2018-10-05T14:49:20.375Z,55.80
2018-10-05T14:51:52.490Z,55.00
2018-10-05T14:54:24.656Z,54.10
2018-10-05T14:56:56.529Z,55.50
2018-10-05T14:59:28.537Z,54.70
2018-10-05T15:02:01.148Z,54.90
2018-10-05T15:04:33.603Z,54.80
2018-10-05T15:07:05.766Z,55.50
2018-10-05T15:09:38.404Z,55.40
2018-10-05T15:12:10.754Z,55.20
2018-10-05T15:14:43.150Z,54.50
2018-10-05T15:17:18.265Z,54.10
2018-10-05T15:19:50.275Z,54.60
2018-10-05T15:22:22.504Z,55.60
2018-10-05T15:24:54.634Z,56.40
2018-10-05T15:27:27.017Z,58.30
2018-10-05T15:29:59.367Z,58.60
2018-10-05T15:32:31.606Z,58.70
2018-10-05T15:35:04.113Z,57.90
2018-10-05T15:37:36.693Z,58.70
2018-10-05T15:40:08.844Z,60.00
2018-10-05T15:42:40.890Z,60.50
2018-10-05T15:45:13.348Z,60.80
2018-10-05T15:47:46.089Z,61.10
2018-10-05T15:50:18.627Z,63.30
2018-10-05T15:52:51.080Z,64.10
2018-10-05T15:55:23.374Z,63.70
2018-10-05T15:57:55.585Z,63.70
2018-10-05T16:00:27.958Z,63.50
2018-10-05T16:03:00.323Z,63.20
2018-10-05T16:05:32.319Z,64.10
2018-10-05T16:08:04.689Z,63.90
2018-10-05T16:10:37.643Z,64.10
2018-10-05T16:13:10.135Z,63.20
2018-10-05T16:15:42.605Z,62.30
2018-10-05T16:18:15.524Z,63.20
2018-10-05T16:20:47.878Z,63.70
2018-10-05T16:23:20.129Z,65.00
2018-10-05T16:25:52.234Z,64.90
2018-10-05T16:28:24.486Z,63.60
2018-10-05T16:30:56.638Z,63.60
2018-10-05T16:33:28.978Z,62.90
2018-10-05T16:36:01.163Z,62.40
2018-10-05T16:38:33.713Z,62.30
2018-10-05T16:41:05.995Z,61.80
2018-10-05T16:43:38.643Z,62.20
2018-10-05T16:46:11.072Z,63.70
2018-10-05T16:48:43.429Z,63.70
2018-10-05T16:51:15.940Z,64.90
2018-10-05T16:53:48.192Z,65.70
2018-10-05T16:56:20.396Z,65.00
2018-10-05T16:58:52.621Z,65.20
2018-10-05T17:01:24.978Z,65.40
2018-10-05T17:03:57.453Z,63.40
2018-10-05T17:06:30.091Z,64.00
2018-10-05T17:09:08.866Z,64.50
2018-10-05T17:11:42.665Z,64.40
2018-10-05T17:14:15.318Z,65.50
2018-10-05T17:16:47.810Z,64.40
2018-10-05T17:19:20.185Z,64.10
2018-10-05T17:21:52.350Z,64.20
2018-10-05T17:24:24.554Z,65.30
2018-10-05T17:26:57.080Z,65.60
2018-10-05T17:29:29.662Z,64.80
2018-10-05T17:32:02.043Z,65.00
2018-10-05T17:34:34.595Z,64.30
2018-10-05T17:37:07.381Z,65.00
2018-10-05T17:39:39.754Z,64.60
2018-10-05T17:42:12.309Z,64.20
2018-10-05T17:44:44.917Z,65.40
2018-10-05T17:47:17.255Z,67.70
2018-10-05T17:49:49.610Z,67.80
2018-10-05T17:52:22.078Z,66.80
2018-10-05T17:54:54.510Z,63.80
2018-10-05T17:57:26.875Z,64.50
2018-10-05T17:59:59.451Z,64.60
2018-10-05T18:02:32.040Z,64.00
2018-10-05T18:05:04.176Z,64.80
2018-10-05T18:07:36.964Z,65.60
2018-10-05T18:10:09.555Z,65.80
2018-10-05T18:12:42.001Z,67.80
2018-10-05T18:15:13.996Z,64.20
2018-10-05T18:17:46.317Z,62.80
2018-10-05T18:20:18.560Z,63.30
2018-10-05T18:22:50.653Z,60.80
2018-10-05T18:25:22.689Z,62.00
2018-10-05T18:27:55.053Z,58.30
2018-10-05T18:30:27.465Z,60.90
2018-10-05T18:32:59.816Z,63.40
2018-10-05T18:35:31.830Z,61.70
2018-10-05T18:38:04.364Z,60.00
2018-10-05T18:40:36.798Z,60.50
2018-10-05T18:43:08.774Z,59.60
2018-10-05T18:45:41.232Z,60.20
2018-10-05T18:48:13.949Z,61.50
2018-10-05T18:50:46.192Z,63.10
2018-10-05T18:53:18.212Z,61.40
2018-10-05T18:55:50.358Z,60.70
2018-10-05T18:58:22.550Z,63.20
2018-10-05T19:00:54.966Z,60.20
2018-10-05T19:03:27.595Z,62.40
2018-10-05T19:06:00.089Z,63.20
2018-10-05T19:08:32.453Z,62.00
2018-10-05T19:11:04.919Z,63.10
2018-10-05T19:13:37.444Z,62.80
2018-10-05T19:16:09.825Z,61.90
2018-10-05T19:18:42.230Z,62.60
2018-10-05T19:21:14.505Z,63.20
2018-10-05T19:23:46.717Z,62.30
2018-10-05T19:26:19.376Z,63.60
2018-10-05T19:28:51.563Z,64.00
2018-10-05T19:31:23.786Z,64.20
2018-10-05T19:33:55.942Z,65.90
2018-10-05T19:36:28.351Z,65.00
2018-10-05T19:39:00.645Z,65.80
2018-10-05T19:41:33.068Z,64.60
2018-10-05T19:44:05.570Z,66.10
2018-10-05T19:46:37.996Z,67.30
2018-10-05T19:49:10.146Z,67.30
2018-10-05T19:51:42.796Z,69.00
2018-10-05T19:54:15.329Z,70.10
2018-10-05T19:56:47.627Z,68.70
2018-10-05T19:59:19.920Z,70.40
2018-10-05T20:01:52.373Z,71.60
2018-10-05T20:04:24.683Z,72.80
2018-10-05T20:06:57.092Z,72.40
2018-10-05T20:09:29.634Z,73.40
2018-10-05T20:12:02.337Z,72.70
2018-10-05T20:14:34.848Z,71.70
2018-10-05T20:17:07.700Z,71.10
2018-10-05T20:19:40.054Z,69.20
2018-10-05T20:22:12.380Z,70.40
2018-10-05T20:24:44.750Z,71.80
2018-10-05T20:27:17.269Z,70.90
2018-10-05T20:29:49.413Z,70.80
2018-10-05T20:32:21.705Z,69.10
2018-10-05T20:34:53.659Z,70.80
2018-10-05T20:37:25.924Z,70.10
2018-10-05T20:39:58.399Z,70.60
2018-10-05T20:42:31.254Z,69.30
2018-10-05T20:45:03.360Z,68.80
2018-10-05T20:47:35.747Z,69.10
2018-10-05T20:50:08.078Z,70.60
2018-10-05T20:52:40.311Z,70.40
2018-10-05T20:55:12.819Z,71.10
2018-10-05T20:57:44.941Z,72.30
2018-10-05T21:00:17.459Z,72.00
2018-10-05T21:02:49.538Z,72.20
2018-10-05T21:05:22.076Z,71.90
2018-10-05T21:07:54.632Z,71.20
2018-10-05T21:10:26.888Z,71.60
2018-10-05T21:12:59.837Z,71.00
2018-10-05T21:15:32.027Z,72.00
2018-10-05T21:18:04.432Z,73.00
2018-10-05T21:20:36.809Z,72.20
2018-10-05T21:23:09.247Z,72.30
2018-10-05T21:25:41.309Z,72.90
2018-10-05T21:28:13.914Z,72.30
2018-10-05T21:30:46.249Z,72.70
2018-10-05T21:33:18.798Z,72.70
2018-10-05T21:35:51.126Z,73.50
2018-10-05T21:38:23.559Z,74.90
2018-10-05T21:40:55.648Z,76.20
2018-10-05T21:43:28.028Z,77.90
2018-10-05T21:46:00.661Z,79.40
2018-10-05T21:48:33.776Z,80.50
2018-10-05T21:51:05.943Z,81.70
2018-10-05T21:53:38.168Z,83.00
2018-10-05T21:56:11.123Z,83.80
2018-10-05T21:58:43.498Z,84.60
2018-10-05T22:01:16.009Z,85.90
2018-10-05T22:03:48.624Z,86.30
2018-10-05T22:06:21.260Z,85.80
2018-10-05T22:08:53.616Z,86.30
2018-10-05T22:11:25.784Z,86.60
2018-10-05T22:13:58.198Z,87.40
2018-10-05T22:16:30.413Z,87.60
2018-10-05T22:19:02.975Z,87.40
2018-10-05T22:21:35.588Z,87.90
2018-10-05T22:24:07.819Z,88.10
2018-10-05T22:26:40.247Z,88.10
2018-10-05T22:29:12.580Z,88.00
2018-10-05T22:31:44.950Z,87.80
2018-10-05T22:34:17.129Z,87.60
2018-10-05T22:36:49.170Z,87.60
2018-10-05T22:39:21.760Z,87.60
2018-10-05T22:41:54.155Z,87.10
2018-10-05T22:44:26.487Z,87.20
2018-10-05T22:46:59.331Z,87.00
2018-10-05T22:49:31.711Z,86.80
2018-10-05T22:52:04.038Z,87.00
2018-10-05T22:54:36.664Z,87.10
2018-10-05T22:59:30.328Z,87.40
2018-10-05T23:02:02.775Z,88.00
2018-10-05T23:04:35.021Z,88.10
2018-10-05T23:07:07.574Z,88.40
2018-10-05T23:09:40.162Z,88.50
2018-10-05T23:12:12.644Z,89.30
2018-10-05T23:14:44.979Z,89.20
2018-10-05T23:17:17.358Z,89.20
2018-10-05T23:19:49.598Z,88.90
2018-10-05T23:22:21.780Z,89.10
2018-10-05T23:24:54.272Z,89.20
2018-10-05T23:27:26.958Z,89.70
2018-10-05T23:29:59.224Z,89.90
2018-10-05T23:32:31.833Z,89.20
2018-10-05T23:35:04.396Z,89.10
2018-10-05T23:37:36.727Z,89.20
2018-10-05T23:40:08.951Z,89.20
2018-10-05T23:42:41.392Z,89.10
2018-10-05T23:45:13.788Z,88.80
2018-10-05T23:47:46.367Z,88.80
2018-10-05T23:50:18.726Z,88.30
2018-10-05T23:52:51.762Z,88.60
2018-10-05T23:55:24.073Z,88.60
2018-10-05T23:57:56.491Z,88.80
